Terminal Aerodrome Forecast
Issued by NWS Cleveland, OH

Home | Current Version | Previous Version | Graphics & Text | Print | Product List | Glossary On
Versions: 1 2 3 4 5 6 7 8 9 10 11 12 13 14 15 16 17 18 19 20
013
FTUS41 KCLE 232320
TAFYNG
TAF
KYNG 232320Z 2400/2424 12005KT P6SM OVC200
     FM240300 12005KT P6SM BKN150
     FM241300 12006KT P6SM BKN035
     FM241500 12007KT P6SM BKN030
     FM242200 12009KT P6SM -SHRA OVC020
     FM242300 11009KT P6SM -SHRA OVC015=

USA.gov is the U.S. government's official web portal to all federal, state and local government web resources and services.